createdAt,value
2023-05-23T00:00:38.393Z,19.50
2023-05-23T00:03:12.667Z,19.50
2023-05-23T00:05:48.826Z,19.50
2023-05-23T00:08:22.229Z,19.40
2023-05-23T00:10:55.996Z,19.40
2023-05-23T00:13:29.947Z,19.40
2023-05-23T00:16:05.013Z,19.40
2023-05-23T00:18:40.576Z,19.30
2023-05-23T00:21:16.065Z,19.30
2023-05-23T00:23:50.847Z,19.20
2023-05-23T00:26:24.769Z,19.20
2023-05-23T00:29:00.166Z,19.10
2023-05-23T00:31:34.152Z,19.10
2023-05-23T00:34:10.007Z,19.10
2023-05-23T00:36:48.344Z,19.10
2023-05-23T00:39:22.367Z,19.00
2023-05-23T00:41:56.682Z,19.00
2023-05-23T00:44:30.537Z,19.00
2023-05-23T00:47:04.683Z,18.90
2023-05-23T00:49:39.762Z,18.90
2023-05-23T00:52:16.280Z,18.90
2023-05-23T00:54:49.906Z,18.80
2023-05-23T00:57:24.301Z,18.80
2023-05-23T00:59:58.434Z,18.70
2023-05-23T01:02:37.037Z,18.70
2023-05-23T01:05:14.764Z,18.70
2023-05-23T01:07:51.370Z,18.70
2023-05-23T01:10:29.391Z,18.60
2023-05-23T01:13:19.348Z,18.60
2023-05-23T01:16:03.052Z,18.60
2023-05-23T01:18:42.481Z,18.60
2023-05-23T01:21:19.698Z,18.50
2023-05-23T01:24:27.394Z,18.50
2023-05-23T01:27:21.997Z,18.50
2023-05-23T01:30:02.488Z,18.50
2023-05-23T01:32:39.076Z,18.50
2023-05-23T01:35:13.866Z,18.50
2023-05-23T01:37:48.166Z,18.50
2023-05-23T01:40:22.994Z,18.50
2023-05-23T01:42:58.881Z,18.50
2023-05-23T01:45:34.645Z,18.40
2023-05-23T01:48:09.779Z,18.40
2023-05-23T01:50:46.952Z,18.40
2023-05-23T01:53:24.261Z,18.40
2023-05-23T01:56:03.740Z,18.40
2023-05-23T01:58:37.651Z,18.40
2023-05-23T02:01:14.025Z,18.40
2023-05-23T02:03:48.369Z,18.40
2023-05-23T02:06:22.729Z,18.40
2023-05-23T02:08:56.983Z,18.40
2023-05-23T02:11:30.852Z,18.40
2023-05-23T02:14:04.849Z,18.40
2023-05-23T02:16:41.254Z,18.40
2023-05-23T02:19:14.818Z,18.30
2023-05-23T02:21:49.107Z,18.30
2023-05-23T02:24:22.914Z,18.30
2023-05-23T02:26:57.010Z,18.30
2023-05-23T02:29:32.253Z,18.30
2023-05-23T02:32:09.689Z,18.30
2023-05-23T02:34:46.735Z,18.30
2023-05-23T02:37:20.691Z,18.30
2023-05-23T02:39:55.607Z,18.30
2023-05-23T02:42:30.186Z,18.20
2023-05-23T02:45:04.267Z,18.30
2023-05-23T02:47:39.394Z,18.20
2023-05-23T02:50:13.466Z,18.20
2023-05-23T02:52:47.312Z,18.20
2023-05-23T02:55:21.989Z,18.20
2023-05-23T02:57:57.210Z,18.20
2023-05-23T03:00:31.129Z,18.20
2023-05-23T03:03:06.917Z,18.20
2023-05-23T03:05:41.026Z,18.20
2023-05-23T03:08:15.254Z,18.20
2023-05-23T03:10:49.018Z,18.20
2023-05-23T03:13:23.009Z,18.20
2023-05-23T03:15:58.086Z,18.20
2023-05-23T03:18:34.409Z,18.20
2023-05-23T03:21:09.935Z,18.10
2023-05-23T03:23:43.791Z,18.10
2023-05-23T03:26:17.552Z,18.10
2023-05-23T03:28:51.639Z,18.10
2023-05-23T03:31:25.713Z,18.10
2023-05-23T03:34:01.249Z,18.10
2023-05-23T03:36:36.167Z,18.10
2023-05-23T03:39:10.146Z,18.00
2023-05-23T03:41:44.230Z,18.00
2023-05-23T03:44:18.168Z,18.00
2023-05-23T03:46:53.002Z,18.00
2023-05-23T03:49:28.678Z,18.00
2023-05-23T03:52:02.734Z,18.00
2023-05-23T03:54:38.091Z,18.00
2023-05-23T03:57:11.709Z,18.00
2023-05-23T03:59:45.673Z,18.00
2023-05-23T04:02:20.209Z,18.00
2023-05-23T04:04:57.421Z,18.00
2023-05-23T04:07:34.577Z,18.00
2023-05-23T04:10:10.431Z,17.90
2023-05-23T04:12:46.101Z,17.90
2023-05-23T04:15:21.734Z,17.90
2023-05-23T04:17:56.506Z,17.90
2023-05-23T04:20:32.694Z,17.90
2023-05-23T04:23:06.554Z,17.90
2023-05-23T04:25:41.059Z,17.90
2023-05-23T04:28:17.883Z,17.80
2023-05-23T04:30:51.663Z,17.90
2023-05-23T04:33:26.321Z,17.80
2023-05-23T04:36:01.686Z,17.80
2023-05-23T04:38:35.717Z,17.80
2023-05-23T04:41:10.769Z,17.80
2023-05-23T04:43:44.896Z,17.80
2023-05-23T04:46:19.113Z,17.80
2023-05-23T04:48:53.421Z,17.90
2023-05-23T04:51:28.608Z,17.80
2023-05-23T04:54:02.529Z,17.80
2023-05-23T04:56:38.605Z,17.80
2023-05-23T04:59:13.682Z,17.80
2023-05-23T05:01:47.571Z,17.80
2023-05-23T05:04:23.714Z,17.80
2023-05-23T05:06:59.474Z,17.80
2023-05-23T05:09:35.178Z,17.80
2023-05-23T05:12:09.423Z,17.80
2023-05-23T05:14:43.421Z,17.80
2023-05-23T05:17:19.445Z,17.80
2023-05-23T05:19:54.162Z,17.80
2023-05-23T05:22:29.606Z,17.80
2023-05-23T05:25:04.333Z,17.80
2023-05-23T05:27:39.369Z,17.80
2023-05-23T05:30:14.316Z,17.80
2023-05-23T05:32:49.779Z,17.80
2023-05-23T05:35:23.849Z,17.80
2023-05-23T05:37:59.450Z,17.80
2023-05-23T05:40:34.127Z,17.70
2023-05-23T05:43:08.273Z,17.70
2023-05-23T05:45:42.263Z,17.70
2023-05-23T05:48:16.958Z,17.70
2023-05-23T05:50:50.638Z,17.70
2023-05-23T05:53:26.314Z,17.80
2023-05-23T05:55:59.833Z,17.70
2023-05-23T05:58:35.137Z,17.70
2023-05-23T06:01:09.044Z,17.70
2023-05-23T06:03:43.118Z,17.70
2023-05-23T06:06:16.921Z,17.70
2023-05-23T06:08:52.495Z,17.70
2023-05-23T06:11:29.366Z,17.90
2023-05-23T06:14:03.629Z,17.70
2023-05-23T06:16:38.992Z,17.70
2023-05-23T06:19:14.365Z,17.60
2023-05-23T06:21:48.458Z,17.60
2023-05-23T06:24:23.985Z,17.60
2023-05-23T06:26:57.787Z,17.60
2023-05-23T06:29:32.149Z,17.60
2023-05-23T06:32:07.092Z,17.60
2023-05-23T06:34:41.126Z,17.60
2023-05-23T06:37:15.692Z,17.60
2023-05-23T06:39:51.325Z,17.70
2023-05-23T06:42:25.444Z,17.70
2023-05-23T06:44:59.421Z,17.70
2023-05-23T06:47:33.315Z,17.70
2023-05-23T06:50:09.424Z,17.70
2023-05-23T06:52:44.108Z,17.70
2023-05-23T06:55:19.777Z,17.60
2023-05-23T06:57:53.708Z,17.60
2023-05-23T07:00:27.934Z,17.60
2023-05-23T07:03:03.894Z,17.60
2023-05-23T07:05:40.890Z,17.60
2023-05-23T07:08:15.746Z,17.60
2023-05-23T07:10:51.023Z,17.60
2023-05-23T07:13:25.151Z,17.60
2023-05-23T07:15:59.420Z,17.60
2023-05-23T07:18:37.589Z,17.60
2023-05-23T07:21:12.734Z,17.60
2023-05-23T07:23:46.668Z,17.60
2023-05-23T07:26:22.323Z,17.60
2023-05-23T07:28:56.285Z,17.60
2023-05-23T07:31:30.354Z,17.60
2023-05-23T07:34:04.201Z,17.60
2023-05-23T07:36:41.080Z,17.60
2023-05-23T07:39:15.975Z,17.60
2023-05-23T07:41:51.732Z,17.60
2023-05-23T07:44:25.948Z,17.60
2023-05-23T07:47:00.042Z,17.60
2023-05-23T07:49:34.258Z,17.60
2023-05-23T07:52:08.553Z,17.60
2023-05-23T07:54:42.896Z,17.60
2023-05-23T07:57:18.915Z,17.60
2023-05-23T07:59:53.622Z,17.60
2023-05-23T08:02:27.977Z,17.60
2023-05-23T08:05:02.038Z,17.60
2023-05-23T08:07:36.030Z,17.60
2023-05-23T08:10:11.698Z,17.60
2023-05-23T08:12:47.065Z,17.60
2023-05-23T08:15:23.398Z,17.60
2023-05-23T08:17:58.028Z,17.60
2023-05-23T08:20:32.401Z,17.60
2023-05-23T08:23:06.960Z,17.60
2023-05-23T08:25:40.896Z,17.60
2023-05-23T08:28:16.601Z,17.70
2023-05-23T08:30:50.518Z,17.60
2023-05-23T08:33:25.116Z,17.70
2023-05-23T08:35:58.939Z,17.70
2023-05-23T08:38:32.673Z,17.70
2023-05-23T08:41:17.319Z,17.70
2023-05-23T08:43:53.075Z,17.70
2023-05-23T08:46:27.529Z,17.70
2023-05-23T08:49:02.778Z,17.60
2023-05-23T08:51:39.733Z,17.60
2023-05-23T08:54:14.066Z,17.60
2023-05-23T08:56:48.133Z,17.50
2023-05-23T08:59:24.383Z,17.50
2023-05-23T09:01:59.692Z,17.40
2023-05-23T09:04:33.859Z,17.40
2023-05-23T09:07:09.111Z,17.40
2023-05-23T09:09:44.374Z,17.40
2023-05-23T09:12:18.320Z,17.40
2023-05-23T09:14:54.155Z,17.30
2023-05-23T09:17:28.010Z,17.30
2023-05-23T09:20:02.272Z,17.30
2023-05-23T09:22:37.386Z,17.30
2023-05-23T09:25:11.394Z,17.30
2023-05-23T09:27:48.319Z,17.30
2023-05-23T09:30:23.690Z,17.30
2023-05-23T09:33:05.590Z,17.30
2023-05-23T09:35:47.893Z,17.30
2023-05-23T09:38:21.984Z,17.30
2023-05-23T09:40:58.219Z,17.40
2023-05-23T09:43:32.172Z,17.40
2023-05-23T09:46:12.844Z,17.40
2023-05-23T09:48:49.081Z,17.50
2023-05-23T09:51:25.612Z,17.50
2023-05-23T09:53:59.457Z,17.50
2023-05-23T09:56:35.235Z,17.50
2023-05-23T09:59:13.993Z,17.50
2023-05-23T10:01:54.959Z,17.50
2023-05-23T10:04:33.664Z,17.50
2023-05-23T10:07:16.076Z,17.50
2023-05-23T10:10:01.637Z,17.50
2023-05-23T10:12:57.680Z,17.40
2023-05-23T10:15:39.887Z,17.40
2023-05-23T10:18:24.627Z,17.40
2023-05-23T10:21:11.452Z,17.40
2023-05-23T10:23:47.902Z,17.30
2023-05-23T10:26:26.756Z,17.30
2023-05-23T10:29:03.283Z,17.20
2023-05-23T10:31:38.452Z,17.20
2023-05-23T10:34:26.061Z,17.10
2023-05-23T10:37:05.908Z,17.00
2023-05-23T10:39:56.419Z,17.00
2023-05-23T10:42:48.100Z,17.00
2023-05-23T10:45:23.789Z,17.00
2023-05-23T10:47:57.605Z,17.00
2023-05-23T10:50:38.819Z,17.00
2023-05-23T10:53:18.369Z,17.00
2023-05-23T10:55:52.431Z,17.10
2023-05-23T10:58:26.511Z,17.10
2023-05-23T11:01:04.706Z,17.20
2023-05-23T11:03:54.566Z,17.30
2023-05-23T11:06:41.473Z,17.40
2023-05-23T11:09:19.276Z,17.50
2023-05-23T11:12:05.497Z,17.50
2023-05-23T11:14:56.092Z,17.60
2023-05-23T11:17:34.594Z,17.70
2023-05-23T11:20:13.328Z,17.70
2023-05-23T11:22:56.590Z,17.80
2023-05-23T11:25:44.703Z,17.80
2023-05-23T11:28:21.934Z,17.80
2023-05-23T11:30:57.951Z,17.90
2023-05-23T11:33:32.608Z,17.90
2023-05-23T11:36:09.770Z,17.90
2023-05-23T11:38:48.533Z,17.90
2023-05-23T11:41:23.141Z,18.00
2023-05-23T11:43:59.140Z,18.00
2023-05-23T11:46:34.412Z,18.00
2023-05-23T11:49:13.652Z,18.10
2023-05-23T11:51:48.346Z,18.10
2023-05-23T11:54:26.618Z,18.20
2023-05-23T11:57:03.573Z,18.20
2023-05-23T11:59:38.165Z,18.20
2023-05-23T12:02:12.086Z,18.30
2023-05-23T12:04:46.135Z,18.30
2023-05-23T12:07:21.736Z,18.30
2023-05-23T12:09:59.002Z,18.30
2023-05-23T12:12:34.291Z,18.30
2023-05-23T12:15:10.225Z,18.30
2023-05-23T12:17:48.128Z,18.30
2023-05-23T12:20:22.577Z,18.40
2023-05-23T12:22:59.088Z,18.50
2023-05-23T12:25:42.106Z,18.60
2023-05-23T12:28:16.674Z,18.70
2023-05-23T12:30:51.998Z,18.80
2023-05-23T12:33:26.735Z,19.00
2023-05-23T12:36:00.445Z,19.10
2023-05-23T12:38:38.203Z,19.20
2023-05-23T12:41:18.012Z,19.30
2023-05-23T12:43:53.991Z,19.40
2023-05-23T12:46:29.615Z,19.50
2023-05-23T12:49:05.414Z,19.50
2023-05-23T12:51:39.096Z,19.60
2023-05-23T12:54:12.909Z,19.60
2023-05-23T12:56:48.872Z,19.80
2023-05-23T12:59:22.764Z,19.80
2023-05-23T13:01:57.785Z,19.90
2023-05-23T13:04:34.646Z,19.90
2023-05-23T13:07:09.517Z,20.00
2023-05-23T13:09:43.870Z,20.10
2023-05-23T13:12:19.846Z,20.10
2023-05-23T13:14:55.329Z,20.10
2023-05-23T13:17:29.405Z,20.10
2023-05-23T13:20:05.351Z,20.10
2023-05-23T13:22:39.252Z,20.20
2023-05-23T13:25:14.169Z,20.30
2023-05-23T13:27:49.931Z,20.40
2023-05-23T13:30:26.192Z,20.50
2023-05-23T13:33:00.337Z,20.50
2023-05-23T13:35:34.574Z,20.60
2023-05-23T13:38:08.548Z,20.60
2023-05-23T13:40:46.158Z,20.70
2023-05-23T13:43:22.302Z,20.80
2023-05-23T13:45:56.490Z,20.80
2023-05-23T13:48:30.143Z,20.90
2023-05-23T13:51:04.233Z,20.90
2023-05-23T13:53:39.212Z,20.90
2023-05-23T13:56:17.365Z,21.00
2023-05-23T13:58:53.211Z,21.00
2023-05-23T14:01:29.014Z,21.10
2023-05-23T14:04:04.326Z,21.10
2023-05-23T14:06:39.758Z,21.10
2023-05-23T14:09:14.277Z,21.20
2023-05-23T14:11:48.706Z,21.20
2023-05-23T14:14:25.322Z,21.20
2023-05-23T14:16:59.829Z,21.20
2023-05-23T14:19:33.570Z,21.20
2023-05-23T14:22:07.662Z,21.20
2023-05-23T14:24:41.510Z,21.20
2023-05-23T14:27:15.380Z,21.10
2023-05-23T14:29:50.711Z,21.10
2023-05-23T14:32:25.345Z,21.10
2023-05-23T14:34:59.230Z,21.10
2023-05-23T14:37:33.321Z,21.00
2023-05-23T14:40:10.349Z,21.00
2023-05-23T14:42:44.217Z,21.10
2023-05-23T14:45:20.059Z,21.00
2023-05-23T14:47:54.507Z,21.00
2023-05-23T14:50:29.008Z,21.00
2023-05-23T14:53:02.905Z,21.10
2023-05-23T14:55:36.641Z,21.10
2023-05-23T14:58:10.396Z,21.20
2023-05-23T15:00:48.134Z,21.20
2023-05-23T15:03:21.938Z,21.20
2023-05-23T15:05:56.435Z,21.30
2023-05-23T15:08:30.874Z,21.30
2023-05-23T15:11:04.747Z,21.20
2023-05-23T15:13:38.263Z,21.20
2023-05-23T15:16:13.551Z,21.20
2023-05-23T15:18:47.540Z,21.10
2023-05-23T15:21:21.205Z,21.10
2023-05-23T15:23:55.008Z,21.00
2023-05-23T15:26:29.911Z,20.90
2023-05-23T15:29:03.639Z,20.90
2023-05-23T15:31:38.738Z,20.90
2023-05-23T15:34:12.323Z,20.90
2023-05-23T15:36:46.083Z,20.90
2023-05-23T15:39:19.739Z,20.80
2023-05-23T15:41:53.420Z,20.80
2023-05-23T15:44:27.438Z,20.70
2023-05-23T15:47:02.844Z,20.70
2023-05-23T15:49:37.412Z,20.60
2023-05-23T15:52:11.008Z,20.60
2023-05-23T15:54:44.799Z,20.50
2023-05-23T15:57:18.485Z,20.50
2023-05-23T15:59:52.107Z,20.40
2023-05-23T16:02:27.294Z,20.40
2023-05-23T16:05:01.336Z,20.40
2023-05-23T16:07:35.053Z,20.40
2023-05-23T16:10:11.586Z,20.30
2023-05-23T16:12:46.792Z,20.30
2023-05-23T16:15:20.645Z,20.20
2023-05-23T16:17:56.377Z,20.20
2023-05-23T16:20:30.365Z,20.20
2023-05-23T16:23:05.642Z,20.20
2023-05-23T16:25:39.327Z,20.20
2023-05-23T16:28:14.075Z,20.30
2023-05-23T16:30:48.519Z,20.30
2023-05-23T16:33:23.655Z,20.40
2023-05-23T16:35:57.812Z,20.50
2023-05-23T16:38:31.994Z,20.50
2023-05-23T16:41:05.996Z,20.60
2023-05-23T16:43:39.985Z,20.60
2023-05-23T16:46:13.741Z,20.60
2023-05-23T16:48:48.990Z,20.60
2023-05-23T16:51:23.614Z,20.60
2023-05-23T16:53:57.478Z,20.60
2023-05-23T16:56:31.163Z,20.60
2023-05-23T16:59:05.365Z,20.50
2023-05-23T17:01:39.030Z,20.50
2023-05-23T17:04:14.807Z,20.50
2023-05-23T17:06:48.358Z,20.40
2023-05-23T17:09:23.135Z,20.40
2023-05-23T17:11:56.991Z,20.30
2023-05-23T17:14:31.470Z,20.30
2023-05-23T17:17:05.822Z,20.30
2023-05-23T17:19:41.251Z,20.20
2023-05-23T17:22:15.309Z,20.20
2023-05-23T17:24:49.111Z,20.20
2023-05-23T17:27:23.164Z,20.20
2023-05-23T17:29:58.537Z,20.10
2023-05-23T17:32:32.412Z,20.00
2023-05-23T17:35:09.152Z,20.00
2023-05-23T17:37:44.844Z,19.90
2023-05-23T17:40:19.034Z,19.90
2023-05-23T17:42:52.943Z,19.80
2023-05-23T17:45:27.291Z,19.90
2023-05-23T17:48:03.691Z,19.80
2023-05-23T17:50:39.524Z,19.80
2023-05-23T17:53:14.659Z,19.70
2023-05-23T17:55:49.090Z,19.70
2023-05-23T17:58:22.989Z,19.60
2023-05-23T18:00:56.970Z,19.60
2023-05-23T18:03:31.118Z,19.50
2023-05-23T18:06:06.766Z,19.50
2023-05-23T18:08:40.547Z,19.40
2023-05-23T18:11:14.402Z,19.30
2023-05-23T18:13:48.570Z,19.30
2023-05-23T18:16:22.916Z,19.20
2023-05-23T18:18:57.678Z,19.10
2023-05-23T18:21:34.778Z,19.10
2023-05-23T18:24:12.050Z,19.00
2023-05-23T18:26:45.927Z,19.00
2023-05-23T18:29:20.365Z,18.90
2023-05-23T18:31:54.886Z,18.80
2023-05-23T18:34:29.401Z,18.80
2023-05-23T18:37:08.815Z,18.80
2023-05-23T18:39:42.797Z,18.70
2023-05-23T18:42:18.348Z,18.60
2023-05-23T18:44:53.383Z,18.60
2023-05-23T18:47:27.384Z,18.50
2023-05-23T18:50:01.158Z,18.50
2023-05-23T18:52:37.481Z,18.40
2023-05-23T18:55:13.143Z,18.40
2023-05-23T18:57:46.841Z,18.30
2023-05-23T19:00:21.564Z,18.30
2023-05-23T19:02:55.897Z,18.20
2023-05-23T19:05:30.040Z,18.20
2023-05-23T19:08:05.466Z,18.10
2023-05-23T19:10:39.061Z,18.00
2023-05-23T19:13:14.142Z,18.00
2023-05-23T19:15:50.627Z,18.00
2023-05-23T19:18:24.303Z,17.90
2023-05-23T19:20:58.237Z,17.90
2023-05-23T19:23:33.637Z,17.80
2023-05-23T19:26:07.765Z,17.80
2023-05-23T19:28:42.508Z,17.70
2023-05-23T19:31:16.353Z,17.70
2023-05-23T19:33:50.167Z,17.70
2023-05-23T19:36:24.524Z,17.60
2023-05-23T19:38:59.934Z,17.60
2023-05-23T19:41:33.905Z,17.50
2023-05-23T19:44:08.013Z,17.50
2023-05-23T19:46:42.563Z,17.40
2023-05-23T19:49:17.415Z,17.40
2023-05-23T19:51:51.168Z,17.30
2023-05-23T19:54:26.577Z,17.30
2023-05-23T19:57:00.672Z,17.20
2023-05-23T19:59:35.052Z,17.20
2023-05-23T20:02:08.648Z,17.20
2023-05-23T20:04:42.470Z,17.10
2023-05-23T20:07:16.926Z,17.10
2023-05-23T20:09:52.324Z,17.00
2023-05-23T20:12:26.360Z,17.00
2023-05-23T20:14:59.934Z,17.00
2023-05-23T20:17:33.880Z,16.90
2023-05-23T20:20:09.860Z,16.90
2023-05-23T20:22:43.797Z,16.80
2023-05-23T20:25:19.085Z,16.80
2023-05-23T20:27:53.341Z,16.80
2023-05-23T20:30:28.701Z,16.70
2023-05-23T20:33:02.096Z,16.60
2023-05-23T20:35:36.996Z,16.60
2023-05-23T20:38:11.828Z,16.60
2023-05-23T20:40:50.873Z,16.50
2023-05-23T20:43:27.072Z,16.50
2023-05-23T20:46:01.727Z,16.40
2023-05-23T20:48:35.505Z,16.40
2023-05-23T20:51:10.156Z,16.30
2023-05-23T20:53:44.115Z,16.30
2023-05-23T20:56:19.098Z,16.20
2023-05-23T20:58:52.980Z,16.20
2023-05-23T21:01:27.467Z,16.10
2023-05-23T21:04:01.746Z,16.10
2023-05-23T21:06:37.128Z,16.00
2023-05-23T21:09:13.681Z,16.00
2023-05-23T21:11:49.305Z,15.90
2023-05-23T21:14:22.983Z,15.90
2023-05-23T21:16:56.985Z,15.80
2023-05-23T21:19:31.345Z,15.80
2023-05-23T21:22:05.941Z,15.70
2023-05-23T21:24:40.112Z,15.60
2023-05-23T21:27:15.628Z,15.60
2023-05-23T21:29:49.783Z,15.50
2023-05-23T21:32:23.976Z,15.50
2023-05-23T21:34:57.929Z,15.50
2023-05-23T21:37:31.435Z,15.40
2023-05-23T21:40:06.190Z,15.40
2023-05-23T21:42:41.408Z,15.30
2023-05-23T21:45:15.268Z,15.30
2023-05-23T21:47:49.724Z,15.30
2023-05-23T21:50:23.507Z,15.20
2023-05-23T21:52:57.364Z,15.20
2023-05-23T21:55:30.890Z,15.20
2023-05-23T21:58:06.082Z,15.10
2023-05-23T22:00:40.547Z,15.10
2023-05-23T22:03:14.432Z,15.00
2023-05-23T22:05:48.471Z,15.00
2023-05-23T22:08:22.472Z,15.00
2023-05-23T22:10:56.454Z,15.00
2023-05-23T22:13:32.025Z,14.90
2023-05-23T22:16:06.495Z,14.90
2023-05-23T22:18:51.475Z,14.80
2023-05-23T22:21:26.557Z,14.80
2023-05-23T22:24:00.689Z,14.80
2023-05-23T22:26:34.424Z,14.70
2023-05-23T22:29:10.028Z,14.70
2023-05-23T22:31:43.993Z,14.60
2023-05-23T22:34:18.019Z,14.60
2023-05-23T22:36:52.506Z,14.60
2023-05-23T22:39:26.519Z,14.60
2023-05-23T22:42:00.402Z,14.50
2023-05-23T22:44:35.798Z,14.50
2023-05-23T22:47:13.921Z,14.50
2023-05-23T22:49:47.582Z,14.40
2023-05-23T22:52:23.732Z,14.40
2023-05-23T22:54:57.668Z,14.30
2023-05-23T22:57:32.856Z,14.30
2023-05-23T23:00:11.398Z,14.30
2023-05-23T23:02:45.382Z,14.20
2023-05-23T23:05:19.283Z,14.10
2023-05-23T23:07:53.513Z,14.10
2023-05-23T23:10:27.438Z,14.00
2023-05-23T23:13:01.397Z,14.00
2023-05-23T23:15:37.680Z,14.00
2023-05-23T23:18:13.900Z,13.90
2023-05-23T23:20:48.768Z,13.90
2023-05-23T23:23:22.653Z,13.80
2023-05-23T23:25:56.552Z,13.80
2023-05-23T23:28:29.963Z,13.70
2023-05-23T23:31:05.522Z,13.70
2023-05-23T23:33:39.463Z,13.60
2023-05-23T23:36:13.348Z,13.60
2023-05-23T23:38:47.118Z,13.50
2023-05-23T23:41:21.254Z,13.50
2023-05-23T23:43:55.126Z,13.50
2023-05-23T23:46:30.413Z,13.50
2023-05-23T23:49:04.655Z,13.40
2023-05-23T23:51:38.369Z,13.40
2023-05-23T23:54:12.290Z,13.40
2023-05-23T23:56:46.759Z,13.30
2023-05-23T23:59:21.183Z,13.40
